Terminal Aerodrome Forecast
Issued by NWS

Home | Current Version | Previous Version | Text Only | Print | Product List | Glossary Off
Versions: 1 2 3 4 5 6 7 8 9 10 11 12 13 14 15 16

000
FTUS43 KABR 202300
TAFATY
TAF
KATY 202325Z 2100/2124 15008KT P6SM OVC150
     FM210600 13006KT P6SM VCTS SCT050CB OVC150
     FM210900 VRB04KT 4SM BR OVC015
     FM211700 VRB05KT P6SM BKN200=

USA.gov is the U.S. government's official web portal to all federal, state and local government web resources and services.